createdAt,value
2023-04-26T00:00:34.255Z,47.30
2023-04-26T00:03:21.732Z,46.95
2023-04-26T00:06:12.260Z,47.16
2023-04-26T00:08:59.135Z,47.26
2023-04-26T00:11:46.128Z,47.13
2023-04-26T00:14:34.072Z,47.08
2023-04-26T00:17:21.111Z,47.38
2023-04-26T00:20:10.478Z,47.52
2023-04-26T00:22:57.512Z,47.26
2023-04-26T00:25:44.419Z,47.16
2023-04-26T00:28:31.556Z,47.11
2023-04-26T00:31:18.788Z,47.24
2023-04-26T00:34:05.703Z,47.06
2023-04-26T00:36:53.203Z,47.30
2023-04-26T00:39:40.090Z,46.99
2023-04-26T00:42:27.405Z,47.34
2023-04-26T00:45:14.638Z,47.26
2023-04-26T00:48:02.575Z,47.09
2023-04-26T00:50:49.508Z,47.51
2023-04-26T00:53:36.744Z,47.31
2023-04-26T00:56:24.851Z,47.48
2023-04-26T00:59:11.987Z,47.56
2023-04-26T01:01:59.011Z,47.05
2023-04-26T01:04:45.942Z,47.53
2023-04-26T01:07:33.438Z,47.43
2023-04-26T01:10:20.311Z,47.36
2023-04-26T01:13:08.158Z,47.41
2023-04-26T01:15:55.848Z,47.21
2023-04-26T01:18:42.936Z,47.58
2023-04-26T01:21:29.824Z,47.38
2023-04-26T01:24:16.763Z,47.33
2023-04-26T01:27:04.183Z,47.57
2023-04-26T01:29:51.095Z,47.59
2023-04-26T01:32:38.006Z,47.50
2023-04-26T01:35:24.932Z,47.52
2023-04-26T01:38:11.840Z,47.68
2023-04-26T01:40:58.785Z,47.56
2023-04-26T01:43:45.699Z,47.16
2023-04-26T01:46:32.714Z,47.22
2023-04-26T01:49:19.648Z,47.55
2023-04-26T01:52:06.537Z,47.10
2023-04-26T01:54:53.431Z,47.77
2023-04-26T01:57:40.381Z,47.18
2023-04-26T02:00:28.741Z,47.68
2023-04-26T02:03:15.734Z,47.31
2023-04-26T02:06:03.268Z,47.57
2023-04-26T02:08:50.192Z,47.03
2023-04-26T02:11:37.137Z,47.87
2023-04-26T02:14:24.051Z,47.60
2023-04-26T02:17:11.255Z,47.58
2023-04-26T02:19:58.173Z,47.63
2023-04-26T02:22:45.036Z,47.32
2023-04-26T02:25:32.309Z,47.68
2023-04-26T02:28:19.169Z,47.55
2023-04-26T02:31:06.388Z,47.15
2023-04-26T02:33:53.260Z,47.71
2023-04-26T02:36:40.115Z,47.25
2023-04-26T02:39:27.014Z,47.55
2023-04-26T02:42:13.842Z,47.43
2023-04-26T02:45:00.902Z,47.71
2023-04-26T02:47:47.900Z,46.95
2023-04-26T02:50:35.063Z,47.90
2023-04-26T02:53:21.948Z,47.51
2023-04-26T02:56:09.135Z,46.96
2023-04-26T02:58:55.920Z,47.76
2023-04-26T03:01:43.306Z,47.42
2023-04-26T03:04:34.068Z,47.36
2023-04-26T03:07:21.132Z,47.54
2023-04-26T03:10:09.858Z,47.14
2023-04-26T03:12:56.925Z,47.61
2023-04-26T03:15:47.045Z,47.39
2023-04-26T03:18:33.869Z,47.53
2023-04-26T03:21:21.055Z,47.28
2023-04-26T03:24:08.146Z,47.82
2023-04-26T03:26:55.383Z,47.64
2023-04-26T03:29:43.902Z,47.53
2023-04-26T03:32:31.303Z,47.66
2023-04-26T03:35:18.351Z,47.47
2023-04-26T03:38:05.191Z,47.35
2023-04-26T03:40:52.056Z,47.23
2023-04-26T03:43:38.851Z,47.36
2023-04-26T03:46:25.813Z,46.88
2023-04-26T03:49:12.666Z,47.44
2023-04-26T03:51:59.554Z,46.95
2023-04-26T03:54:46.565Z,47.62
2023-04-26T03:57:33.401Z,46.88
2023-04-26T04:00:20.489Z,47.63
2023-04-26T04:03:07.557Z,47.70
2023-04-26T04:05:54.763Z,47.65
2023-04-26T04:08:41.586Z,47.43
2023-04-26T04:11:28.392Z,47.06
2023-04-26T04:14:15.231Z,47.68
2023-04-26T04:17:02.150Z,47.24
2023-04-26T04:19:49.021Z,47.12
2023-04-26T04:22:36.184Z,46.98
2023-04-26T04:25:23.053Z,47.67
2023-04-26T04:28:09.906Z,47.47
2023-04-26T04:30:57.177Z,47.43
2023-04-26T04:33:44.122Z,47.44
2023-04-26T04:36:31.528Z,47.64
2023-04-26T04:39:18.455Z,47.63
2023-04-26T04:42:05.374Z,47.56
2023-04-26T04:44:52.254Z,47.20
2023-04-26T04:47:39.972Z,47.81
2023-04-26T04:50:26.904Z,47.21
2023-04-26T04:53:13.858Z,47.74
2023-04-26T04:56:00.852Z,47.84
2023-04-26T04:58:47.973Z,47.77
2023-04-26T05:01:37.075Z,47.54
2023-04-26T05:04:24.153Z,47.35
2023-04-26T05:07:11.275Z,47.43
2023-04-26T05:09:58.190Z,48.00
2023-04-26T05:12:45.146Z,47.33
2023-04-26T05:15:32.140Z,47.52
2023-04-26T05:18:18.954Z,47.54
2023-04-26T05:21:06.135Z,47.85
2023-04-26T05:23:53.128Z,47.96
2023-04-26T05:26:40.595Z,48.00
2023-04-26T05:29:31.122Z,47.79
2023-04-26T05:32:17.963Z,46.97
2023-04-26T05:35:05.156Z,44.77
2023-04-26T05:37:52.344Z,45.48
2023-04-26T05:40:39.181Z,44.99
2023-04-26T05:43:26.456Z,45.66
2023-04-26T05:46:13.441Z,45.18
2023-04-26T05:49:00.348Z,46.11
2023-04-26T05:51:47.837Z,45.35
2023-04-26T05:54:34.670Z,46.27
2023-04-26T05:57:21.552Z,45.74
2023-04-26T06:00:12.379Z,46.04
2023-04-26T06:02:59.414Z,45.82
2023-04-26T06:05:46.559Z,46.65
2023-04-26T06:08:33.759Z,46.62
2023-04-26T06:11:21.432Z,46.76
2023-04-26T06:14:14.379Z,46.30
2023-04-26T06:17:10.376Z,46.79
2023-04-26T06:19:57.223Z,46.32
2023-04-26T06:22:44.079Z,46.49
2023-04-26T06:25:30.925Z,46.70
2023-04-26T06:28:17.805Z,46.71
2023-04-26T06:31:04.749Z,46.55
2023-04-26T06:33:51.754Z,47.22
2023-04-26T06:36:38.882Z,46.75
2023-04-26T06:39:25.795Z,47.16
2023-04-26T06:42:12.720Z,46.58
2023-04-26T06:44:59.613Z,46.66
2023-04-26T06:47:46.726Z,47.12
2023-04-26T06:50:33.628Z,47.09
2023-04-26T06:53:22.936Z,47.15
2023-04-26T06:56:10.280Z,46.66
2023-04-26T06:59:02.187Z,46.60
2023-04-26T07:01:49.220Z,46.64
2023-04-26T07:04:36.848Z,46.73
2023-04-26T07:07:24.000Z,46.49
2023-04-26T07:10:11.079Z,46.95
2023-04-26T07:12:57.941Z,46.81
2023-04-26T07:15:44.828Z,46.40
2023-04-26T07:18:31.778Z,46.58
2023-04-26T07:21:18.715Z,46.93
2023-04-26T07:24:06.306Z,46.94
2023-04-26T07:26:53.159Z,46.85
2023-04-26T07:29:39.953Z,46.48
2023-04-26T07:32:26.949Z,46.70
2023-04-26T07:35:16.284Z,46.19
2023-04-26T07:38:03.366Z,46.76
2023-04-26T07:40:50.655Z,46.18
2023-04-26T07:43:37.984Z,46.41
2023-04-26T07:46:24.944Z,45.86
2023-04-26T07:49:11.783Z,46.32
2023-04-26T07:52:02.162Z,45.96
2023-04-26T07:54:49.072Z,46.35
2023-04-26T07:57:36.376Z,46.19
2023-04-26T08:00:23.987Z,45.83
2023-04-26T08:03:12.605Z,46.34
2023-04-26T08:05:59.841Z,45.63
2023-04-26T08:08:50.515Z,45.89
2023-04-26T08:11:37.718Z,46.14
2023-04-26T08:14:24.726Z,45.69
2023-04-26T08:17:11.932Z,45.91
2023-04-26T08:19:59.566Z,45.86
2023-04-26T08:22:46.561Z,45.86
2023-04-26T08:25:36.191Z,45.95
2023-04-26T08:28:23.048Z,46.05
2023-04-26T08:31:10.282Z,45.73
2023-04-26T08:33:57.422Z,45.59
2023-04-26T08:36:45.829Z,45.55
2023-04-26T08:39:33.671Z,46.02
2023-04-26T08:42:21.187Z,45.79
2023-04-26T08:45:08.674Z,45.90
2023-04-26T08:48:11.901Z,45.74
2023-04-26T08:50:58.862Z,46.25
2023-04-26T08:53:45.987Z,46.11
2023-04-26T08:56:35.305Z,45.86
2023-04-26T08:59:23.054Z,46.24
2023-04-26T09:02:10.718Z,45.92
2023-04-26T09:04:57.979Z,46.35
2023-04-26T09:07:46.133Z,45.94
2023-04-26T09:10:33.413Z,45.92
2023-04-26T09:13:20.355Z,45.92
2023-04-26T09:16:07.468Z,46.12
2023-04-26T09:18:57.342Z,46.48
2023-04-26T09:21:46.293Z,46.03
2023-04-26T09:24:50.498Z,46.26
2023-04-26T09:27:43.382Z,45.98
2023-04-26T09:30:31.460Z,45.92
2023-04-26T09:33:19.498Z,45.65
2023-04-26T09:36:15.631Z,45.42
2023-04-26T09:39:02.622Z,45.05
2023-04-26T09:41:49.477Z,44.87
2023-04-26T09:44:36.288Z,45.14
2023-04-26T09:47:23.223Z,44.87
2023-04-26T09:50:10.158Z,45.03
2023-04-26T09:52:57.344Z,44.79
2023-04-26T09:55:44.253Z,44.67
2023-04-26T09:58:31.707Z,44.42
2023-04-26T10:01:19.878Z,44.48
2023-04-26T10:04:07.301Z,44.36
2023-04-26T10:06:54.217Z,44.52
2023-04-26T10:09:42.004Z,43.91
2023-04-26T10:12:28.844Z,44.07
2023-04-26T10:15:15.942Z,44.00
2023-04-26T10:18:03.263Z,43.78
2023-04-26T10:20:53.072Z,44.45
2023-04-26T10:23:40.966Z,43.82
2023-04-26T10:26:50.351Z,44.00
2023-04-26T10:29:55.776Z,43.95
2023-04-26T10:33:05.703Z,43.56
2023-04-26T10:36:09.519Z,43.30
2023-04-26T10:39:32.032Z,43.46
2023-04-26T10:42:28.551Z,43.23
2023-04-26T10:45:27.291Z,43.32
2023-04-26T10:48:21.510Z,43.27
2023-04-26T10:51:08.772Z,43.17
2023-04-26T10:53:56.320Z,42.90
2023-04-26T10:56:43.471Z,43.22
2023-04-26T10:59:43.278Z,42.82
2023-04-26T11:02:48.280Z,43.08
2023-04-26T11:05:51.395Z,42.80
2023-04-26T11:08:38.300Z,42.54
2023-04-26T11:11:26.599Z,42.66
2023-04-26T11:14:16.490Z,42.59
2023-04-26T11:17:07.146Z,42.77
2023-04-26T11:19:54.700Z,42.21
2023-04-26T11:22:42.133Z,42.67
2023-04-26T11:25:29.642Z,42.48
2023-04-26T11:28:17.215Z,42.43
2023-04-26T11:31:04.926Z,41.91
2023-04-26T11:33:51.833Z,41.84
2023-04-26T11:36:38.670Z,42.09
2023-04-26T11:39:25.555Z,41.57
2023-04-26T11:42:12.767Z,41.82
2023-04-26T11:45:01.647Z,41.91
2023-04-26T11:47:48.936Z,41.71
2023-04-26T11:50:37.416Z,41.79
2023-04-26T11:53:24.732Z,41.89
2023-04-26T11:56:17.843Z,41.70
2023-04-26T11:59:04.827Z,41.93
2023-04-26T12:01:53.137Z,41.70
2023-04-26T12:04:41.405Z,41.78
2023-04-26T12:07:34.544Z,41.76
2023-04-26T12:10:25.804Z,41.45
2023-04-26T12:13:13.800Z,41.35
2023-04-26T12:16:00.670Z,41.74
2023-04-26T12:18:52.286Z,41.82
2023-04-26T12:21:43.077Z,41.85
2023-04-26T12:24:33.417Z,40.73
2023-04-26T12:27:21.048Z,40.82
2023-04-26T12:30:08.422Z,41.26
2023-04-26T12:33:02.778Z,41.01
2023-04-26T12:35:57.744Z,40.68
2023-04-26T12:38:44.626Z,41.01
2023-04-26T12:41:31.487Z,41.17
2023-04-26T12:44:20.464Z,41.18
2023-04-26T12:47:08.907Z,41.25
2023-04-26T12:49:55.753Z,40.84
2023-04-26T12:52:44.642Z,40.82
2023-04-26T12:55:32.857Z,41.07
2023-04-26T12:58:20.014Z,41.07
2023-04-26T13:01:06.914Z,41.04
2023-04-26T13:03:55.650Z,40.84
2023-04-26T13:06:42.663Z,40.86
2023-04-26T13:09:29.570Z,41.07
2023-04-26T13:12:16.571Z,40.72
2023-04-26T13:15:06.362Z,40.55
2023-04-26T13:17:54.132Z,40.51
2023-04-26T13:20:41.258Z,41.13
2023-04-26T13:23:28.098Z,40.41
2023-04-26T13:26:20.173Z,40.13
2023-04-26T13:29:07.034Z,40.61
2023-04-26T13:31:54.088Z,40.21
2023-04-26T13:34:40.982Z,40.07
2023-04-26T13:37:27.829Z,40.51
2023-04-26T13:40:14.863Z,39.88
2023-04-26T13:43:01.893Z,39.27
2023-04-26T13:45:48.789Z,38.77
2023-04-26T13:48:35.680Z,38.07
2023-04-26T13:51:23.122Z,38.62
2023-04-26T13:54:11.464Z,37.91
2023-04-26T13:56:58.368Z,38.19
2023-04-26T13:59:45.807Z,37.94
2023-04-26T14:02:33.043Z,38.05
2023-04-26T14:05:20.068Z,38.61
2023-04-26T14:08:08.202Z,38.39
2023-04-26T14:10:55.072Z,38.47
2023-04-26T14:13:41.933Z,38.22
2023-04-26T14:16:28.906Z,38.96
2023-04-26T14:19:17.018Z,38.29
2023-04-26T14:22:04.034Z,38.98
2023-04-26T14:24:51.197Z,38.45
2023-04-26T14:27:39.467Z,38.55
2023-04-26T14:30:27.040Z,38.84
2023-04-26T14:33:14.065Z,38.90
2023-04-26T14:36:01.079Z,38.40
2023-04-26T14:38:47.940Z,38.73
2023-04-26T14:41:34.813Z,38.57
2023-04-26T14:44:26.257Z,38.65
2023-04-26T14:47:13.338Z,39.07
2023-04-26T14:50:00.257Z,38.90
2023-04-26T14:52:47.288Z,37.83
2023-04-26T14:55:34.121Z,37.88
2023-04-26T14:58:22.275Z,37.18
2023-04-26T15:01:09.369Z,37.39
2023-04-26T15:03:59.410Z,37.04
2023-04-26T15:06:47.204Z,37.24
2023-04-26T15:09:34.115Z,37.80
2023-04-26T15:12:20.965Z,37.64
2023-04-26T15:15:08.200Z,37.43
2023-04-26T15:17:55.038Z,38.25
2023-04-26T15:20:41.911Z,38.09
2023-04-26T15:23:28.814Z,38.44
2023-04-26T15:26:15.696Z,38.02
2023-04-26T15:29:02.521Z,38.47
2023-04-26T15:31:49.383Z,38.19
2023-04-26T15:34:40.914Z,38.48
2023-04-26T15:37:27.843Z,38.71
2023-04-26T15:40:15.028Z,38.69
2023-04-26T15:43:02.866Z,38.64
2023-04-26T15:45:50.011Z,38.79
2023-04-26T15:48:37.491Z,38.78
2023-04-26T15:51:24.404Z,38.78
2023-04-26T15:54:11.218Z,38.56
2023-04-26T15:56:58.351Z,38.14
2023-04-26T15:59:45.199Z,38.67
2023-04-26T16:02:32.488Z,38.73
2023-04-26T16:05:20.185Z,38.24
2023-04-26T16:08:07.151Z,38.10
2023-04-26T16:10:54.509Z,38.67
2023-04-26T16:13:41.657Z,38.83
2023-04-26T16:16:28.818Z,38.76
2023-04-26T16:19:17.258Z,38.93
2023-04-26T16:22:04.364Z,38.90
2023-04-26T16:24:51.229Z,38.57
2023-04-26T16:27:38.117Z,38.81
2023-04-26T16:30:24.960Z,38.92
2023-04-26T16:33:11.839Z,38.52
2023-04-26T16:35:58.829Z,38.63
2023-04-26T16:38:45.636Z,38.78
2023-04-26T16:41:32.430Z,39.01
2023-04-26T16:44:19.244Z,38.86
2023-04-26T16:47:06.820Z,38.67
2023-04-26T16:49:53.674Z,38.81
2023-04-26T16:52:40.880Z,38.92
2023-04-26T16:55:27.798Z,39.55
2023-04-26T16:58:14.830Z,39.25
2023-04-26T17:01:01.943Z,39.06
2023-04-26T17:03:48.926Z,39.61
2023-04-26T17:06:36.602Z,39.34
2023-04-26T17:09:23.452Z,39.72
2023-04-26T17:12:10.376Z,39.78
2023-04-26T17:14:57.280Z,39.38
2023-04-26T17:17:44.140Z,39.63
2023-04-26T17:20:32.141Z,39.72
2023-04-26T17:23:19.364Z,39.62
2023-04-26T17:26:06.366Z,39.83
2023-04-26T17:28:54.002Z,39.83
2023-04-26T17:31:40.968Z,39.63
2023-04-26T17:34:27.903Z,39.69
2023-04-26T17:37:14.710Z,40.03
2023-04-26T17:40:01.846Z,39.95
2023-04-26T17:42:48.760Z,40.25
2023-04-26T17:45:35.684Z,39.95
2023-04-26T17:48:22.572Z,40.09
2023-04-26T17:51:09.565Z,40.07
2023-04-26T17:53:56.508Z,39.96
2023-04-26T17:56:43.601Z,39.64
2023-04-26T17:59:30.455Z,39.83
2023-04-26T18:02:17.501Z,40.13
2023-04-26T18:05:05.843Z,40.38
2023-04-26T18:07:52.827Z,39.85
2023-04-26T18:10:39.901Z,40.22
2023-04-26T18:13:26.884Z,40.28
2023-04-26T18:16:16.773Z,39.78
2023-04-26T18:19:03.596Z,37.51
2023-04-26T18:21:52.364Z,38.08
2023-04-26T18:24:39.229Z,38.11
2023-04-26T18:27:26.058Z,37.88
2023-04-26T18:30:13.428Z,37.66
2023-04-26T18:33:00.465Z,37.67
2023-04-26T18:35:49.177Z,37.22
2023-04-26T18:38:36.003Z,37.61
2023-04-26T18:41:23.878Z,37.26
2023-04-26T18:44:13.141Z,37.81
2023-04-26T18:47:00.167Z,38.15
2023-04-26T18:49:47.311Z,38.25
2023-04-26T18:52:35.514Z,38.02
2023-04-26T18:55:22.777Z,38.30
2023-04-26T18:58:10.408Z,38.54
2023-04-26T19:00:57.335Z,38.59
2023-04-26T19:03:44.371Z,38.11
2023-04-26T19:06:31.502Z,38.68
2023-04-26T19:09:18.629Z,38.01
2023-04-26T19:12:06.065Z,38.83
2023-04-26T19:14:54.175Z,38.83
2023-04-26T19:17:41.796Z,38.70
2023-04-26T19:20:28.699Z,38.81
2023-04-26T19:23:15.728Z,38.86
2023-04-26T19:26:06.891Z,38.95
2023-04-26T19:28:55.696Z,38.88
2023-04-26T19:31:42.854Z,38.62
2023-04-26T19:34:31.704Z,38.55
2023-04-26T19:37:19.216Z,39.07
2023-04-26T19:40:07.280Z,39.41
2023-04-26T19:42:54.180Z,39.41
2023-04-26T19:45:41.490Z,39.74
2023-04-26T19:48:28.289Z,38.77
2023-04-26T19:51:19.082Z,39.27
2023-04-26T19:54:06.169Z,39.39
2023-04-26T19:56:53.027Z,39.60
2023-04-26T19:59:39.852Z,39.43
2023-04-26T20:02:27.396Z,39.00
2023-04-26T20:05:14.376Z,39.15
2023-04-26T20:08:01.453Z,39.48
2023-04-26T20:10:48.397Z,40.02
2023-04-26T20:13:35.257Z,39.32
2023-04-26T20:16:22.135Z,39.67
2023-04-26T20:19:09.627Z,39.72
2023-04-26T20:21:56.832Z,39.43
2023-04-26T20:24:43.753Z,39.45
2023-04-26T20:27:31.471Z,39.31
2023-04-26T20:30:18.314Z,39.29
2023-04-26T20:33:05.243Z,39.21
2023-04-26T20:35:52.651Z,39.72
2023-04-26T20:38:39.477Z,39.18
2023-04-26T20:41:26.721Z,39.67
2023-04-26T20:44:13.950Z,39.21
2023-04-26T20:47:00.880Z,39.15
2023-04-26T20:49:47.685Z,39.66
2023-04-26T20:52:34.555Z,39.78
2023-04-26T20:55:21.544Z,39.43
2023-04-26T20:58:08.365Z,39.43
2023-04-26T21:00:55.690Z,39.38
2023-04-26T21:03:42.933Z,39.23
2023-04-26T21:06:29.855Z,39.46
2023-04-26T21:09:16.702Z,39.88
2023-04-26T21:12:03.849Z,39.39
2023-04-26T21:14:50.783Z,40.03
2023-04-26T21:17:37.679Z,39.71
2023-04-26T21:20:24.610Z,40.05
2023-04-26T21:23:11.611Z,39.68
2023-04-26T21:25:58.613Z,39.94
2023-04-26T21:28:45.547Z,39.81
2023-04-26T21:31:32.418Z,40.16
2023-04-26T21:34:19.452Z,40.09
2023-04-26T21:37:06.738Z,39.62
2023-04-26T21:39:53.586Z,39.68
2023-04-26T21:42:41.206Z,39.63
2023-04-26T21:45:28.917Z,39.87
2023-04-26T21:48:16.376Z,39.81
2023-04-26T21:51:03.406Z,40.11
2023-04-26T21:53:50.534Z,39.80
2023-04-26T21:56:37.376Z,40.15
2023-04-26T21:59:24.290Z,40.11
2023-04-26T22:02:11.205Z,39.78
2023-04-26T22:04:58.054Z,39.92
2023-04-26T22:07:44.872Z,40.01
2023-04-26T22:10:31.849Z,39.91
2023-04-26T22:13:18.719Z,39.92
2023-04-26T22:16:06.227Z,40.08
2023-04-26T22:18:53.089Z,40.03
2023-04-26T22:21:39.969Z,40.09
2023-04-26T22:24:26.851Z,39.90
2023-04-26T22:27:13.728Z,40.27
2023-04-26T22:30:06.282Z,40.53
2023-04-26T22:32:59.842Z,40.38
2023-04-26T22:35:47.001Z,40.00
2023-04-26T22:38:33.825Z,40.36
2023-04-26T22:41:20.713Z,40.48
2023-04-26T22:44:07.980Z,40.23
2023-04-26T22:46:56.924Z,40.86
2023-04-26T22:49:43.921Z,40.55
2023-04-26T22:52:32.299Z,40.75
2023-04-26T22:55:19.473Z,40.85
2023-04-26T22:58:06.388Z,40.88
2023-04-26T23:00:53.296Z,40.79
2023-04-26T23:03:40.205Z,41.06
2023-04-26T23:06:27.141Z,40.60
2023-04-26T23:09:14.301Z,40.81
2023-04-26T23:12:04.408Z,40.86
2023-04-26T23:14:51.223Z,41.08
2023-04-26T23:17:38.877Z,40.92
2023-04-26T23:20:25.732Z,41.10
2023-04-26T23:23:12.683Z,40.98
2023-04-26T23:25:59.511Z,41.19
2023-04-26T23:28:46.556Z,41.13
2023-04-26T23:31:33.508Z,41.35
2023-04-26T23:34:20.611Z,41.22
2023-04-26T23:37:08.280Z,41.01
2023-04-26T23:39:55.725Z,40.89
2023-04-26T23:42:42.548Z,41.36
2023-04-26T23:45:29.506Z,41.27
2023-04-26T23:48:17.015Z,41.38
2023-04-26T23:51:04.725Z,41.23
2023-04-26T23:53:51.534Z,41.50
2023-04-26T23:56:38.378Z,41.51
2023-04-26T23:59:25.220Z,41.38
